sensor_id;sensor_type;location;lat;lon;timestamp;P1;durP1;ratioP1;P2;durP2;ratioP2
14235;SDS011;7202;50.718;7.072;2023-06-01T00:00:27;3.92;;;2.67;;
14235;SDS011;7202;50.718;7.072;2023-06-01T00:02:55;7.35;;;2.85;;
14235;SDS011;7202;50.718;7.072;2023-06-01T00:05:25;3.35;;;2.58;;
14235;SDS011;7202;50.718;7.072;2023-06-01T00:07:54;3.72;;;2.72;;
14235;SDS011;7202;50.718;7.072;2023-06-01T00:10:23;4.32;;;2.88;;
14235;SDS011;7202;50.718;7.072;2023-06-01T00:12:52;5.57;;;2.92;;
14235;SDS011;7202;50.718;7.072;2023-06-01T00:15:20;3.70;;;2.63;;
14235;SDS011;7202;50.718;7.072;2023-06-01T00:17:49;3.97;;;2.90;;
14235;SDS011;7202;50.718;7.072;2023-06-01T00:20:18;3.80;;;2.70;;
14235;SDS011;7202;50.718;7.072;2023-06-01T00:22:48;7.90;;;2.85;;
14235;SDS011;7202;50.718;7.072;2023-06-01T00:25:17;6.85;;;2.70;;
14235;SDS011;7202;50.718;7.072;2023-06-01T00:27:45;5.15;;;3.30;;
14235;SDS011;7202;50.718;7.072;2023-06-01T00:30:14;4.30;;;3.00;;
14235;SDS011;7202;50.718;7.072;2023-06-01T00:32:43;4.75;;;3.03;;
14235;SDS011;7202;50.718;7.072;2023-06-01T00:35:12;4.00;;;3.03;;
14235;SDS011;7202;50.718;7.072;2023-06-01T00:37:40;6.85;;;2.95;;
14235;SDS011;7202;50.718;7.072;2023-06-01T00:40:11;4.88;;;2.90;;
14235;SDS011;7202;50.718;7.072;2023-06-01T00:42:40;4.68;;;3.03;;
14235;SDS011;7202;50.718;7.072;2023-06-01T00:45:09;4.35;;;3.00;;
14235;SDS011;7202;50.718;7.072;2023-06-01T00:47:39;4.25;;;2.80;;
14235;SDS011;7202;50.718;7.072;2023-06-01T00:50:09;5.25;;;3.25;;
14235;SDS011;7202;50.718;7.072;2023-06-01T00:52:39;5.60;;;2.88;;
14235;SDS011;7202;50.718;7.072;2023-06-01T00:55:08;5.85;;;3.00;;
14235;SDS011;7202;50.718;7.072;2023-06-01T00:57:39;6.82;;;3.35;;
14235;SDS011;7202;50.718;7.072;2023-06-01T01:00:10;5.75;;;2.97;;
14235;SDS011;7202;50.718;7.072;2023-06-01T01:02:40;4.53;;;3.13;;
14235;SDS011;7202;50.718;7.072;2023-06-01T01:05:11;3.50;;;2.80;;
14235;SDS011;7202;50.718;7.072;2023-06-01T01:07:43;4.60;;;2.60;;
14235;SDS011;7202;50.718;7.072;2023-06-01T01:10:22;4.78;;;3.15;;
14235;SDS011;7202;50.718;7.072;2023-06-01T01:12:59;4.10;;;3.08;;
14235;SDS011;7202;50.718;7.072;2023-06-01T01:15:35;6.68;;;3.40;;
14235;SDS011;7202;50.718;7.072;2023-06-01T01:18:14;4.95;;;3.30;;
14235;SDS011;7202;50.718;7.072;2023-06-01T01:20:48;5.03;;;3.00;;
14235;SDS011;7202;50.718;7.072;2023-06-01T01:23:21;5.43;;;2.88;;
14235;SDS011;7202;50.718;7.072;2023-06-01T01:26:14;4.40;;;3.08;;
14235;SDS011;7202;50.718;7.072;2023-06-01T01:28:53;4.68;;;2.97;;
14235;SDS011;7202;50.718;7.072;2023-06-01T01:31:25;5.35;;;3.13;;
14235;SDS011;7202;50.718;7.072;2023-06-01T01:33:56;5.50;;;3.60;;
14235;SDS011;7202;50.718;7.072;2023-06-01T01:36:25;4.03;;;2.95;;
14235;SDS011;7202;50.718;7.072;2023-06-01T01:38:55;4.65;;;3.25;;
14235;SDS011;7202;50.718;7.072;2023-06-01T01:41:24;4.05;;;2.95;;
14235;SDS011;7202;50.718;7.072;2023-06-01T01:43:54;4.30;;;3.05;;
14235;SDS011;7202;50.718;7.072;2023-06-01T01:46:26;4.18;;;3.08;;
14235;SDS011;7202;50.718;7.072;2023-06-01T01:49:01;3.78;;;3.17;;
14235;SDS011;7202;50.718;7.072;2023-06-01T01:51:37;3.97;;;2.92;;
14235;SDS011;7202;50.718;7.072;2023-06-01T01:54:18;4.35;;;3.25;;
14235;SDS011;7202;50.718;7.072;2023-06-01T01:56:48;4.47;;;3.30;;
14235;SDS011;7202;50.718;7.072;2023-06-01T01:59:19;5.13;;;3.35;;
14235;SDS011;7202;50.718;7.072;2023-06-01T02:01:48;5.50;;;3.60;;
14235;SDS011;7202;50.718;7.072;2023-06-01T02:04:17;5.30;;;3.50;;
14235;SDS011;7202;50.718;7.072;2023-06-01T02:06:46;8.20;;;3.70;;
14235;SDS011;7202;50.718;7.072;2023-06-01T02:09:15;6.72;;;3.50;;
14235;SDS011;7202;50.718;7.072;2023-06-01T02:11:43;6.82;;;3.38;;
14235;SDS011;7202;50.718;7.072;2023-06-01T02:14:12;5.88;;;3.67;;
14235;SDS011;7202;50.718;7.072;2023-06-01T02:16:42;4.60;;;3.38;;
14235;SDS011;7202;50.718;7.072;2023-06-01T02:19:12;4.45;;;3.10;;
14235;SDS011;7202;50.718;7.072;2023-06-01T02:21:42;4.20;;;3.30;;
14235;SDS011;7202;50.718;7.072;2023-06-01T02:24:11;6.60;;;3.30;;
14235;SDS011;7202;50.718;7.072;2023-06-01T02:26:40;5.43;;;3.42;;
14235;SDS011;7202;50.718;7.072;2023-06-01T02:29:09;5.45;;;3.30;;
14235;SDS011;7202;50.718;7.072;2023-06-01T02:31:40;4.68;;;3.22;;
14235;SDS011;7202;50.718;7.072;2023-06-01T02:34:11;5.80;;;3.60;;
14235;SDS011;7202;50.718;7.072;2023-06-01T02:36:39;4.78;;;3.50;;
14235;SDS011;7202;50.718;7.072;2023-06-01T02:39:08;4.00;;;3.30;;
14235;SDS011;7202;50.718;7.072;2023-06-01T02:41:37;7.78;;;3.50;;
14235;SDS011;7202;50.718;7.072;2023-06-01T02:44:05;4.85;;;3.38;;
14235;SDS011;7202;50.718;7.072;2023-06-01T02:46:34;7.32;;;3.30;;
14235;SDS011;7202;50.718;7.072;2023-06-01T02:49:02;6.35;;;3.97;;
14235;SDS011;7202;50.718;7.072;2023-06-01T02:51:33;4.22;;;3.22;;
14235;SDS011;7202;50.718;7.072;2023-06-01T02:54:13;5.18;;;3.72;;
14235;SDS011;7202;50.718;7.072;2023-06-01T02:56:41;5.95;;;3.72;;
14235;SDS011;7202;50.718;7.072;2023-06-01T02:59:28;5.30;;;3.75;;
14235;SDS011;7202;50.718;7.072;2023-06-01T03:02:01;7.50;;;3.78;;
14235;SDS011;7202;50.718;7.072;2023-06-01T03:04:30;6.53;;;4.07;;
14235;SDS011;7202;50.718;7.072;2023-06-01T03:07:00;5.20;;;3.70;;
14235;SDS011;7202;50.718;7.072;2023-06-01T03:09:35;6.93;;;3.75;;
14235;SDS011;7202;50.718;7.072;2023-06-01T03:12:12;5.93;;;3.97;;
14235;SDS011;7202;50.718;7.072;2023-06-01T03:14:41;4.95;;;3.50;;
14235;SDS011;7202;50.718;7.072;2023-06-01T03:17:09;6.43;;;3.70;;
14235;SDS011;7202;50.718;7.072;2023-06-01T03:19:38;7.63;;;4.28;;
14235;SDS011;7202;50.718;7.072;2023-06-01T03:22:20;6.90;;;4.38;;
14235;SDS011;7202;50.718;7.072;2023-06-01T03:24:49;8.27;;;4.18;;
14235;SDS011;7202;50.718;7.072;2023-06-01T03:27:24;6.90;;;4.10;;
14235;SDS011;7202;50.718;7.072;2023-06-01T03:29:53;7.75;;;4.55;;
14235;SDS011;7202;50.718;7.072;2023-06-01T03:32:22;8.32;;;3.78;;
14235;SDS011;7202;50.718;7.072;2023-06-01T03:34:52;8.77;;;3.80;;
14235;SDS011;7202;50.718;7.072;2023-06-01T03:37:22;5.53;;;4.43;;
14235;SDS011;7202;50.718;7.072;2023-06-01T03:39:51;9.82;;;4.30;;
14235;SDS011;7202;50.718;7.072;2023-06-01T03:42:22;8.15;;;4.28;;
14235;SDS011;7202;50.718;7.072;2023-06-01T03:44:51;7.82;;;4.47;;
14235;SDS011;7202;50.718;7.072;2023-06-01T03:47:20;7.75;;;4.40;;
14235;SDS011;7202;50.718;7.072;2023-06-01T03:49:51;6.45;;;4.40;;
14235;SDS011;7202;50.718;7.072;2023-06-01T03:52:20;8.40;;;4.22;;
14235;SDS011;7202;50.718;7.072;2023-06-01T03:54:50;6.72;;;4.13;;
14235;SDS011;7202;50.718;7.072;2023-06-01T03:57:39;5.75;;;4.07;;
14235;SDS011;7202;50.718;7.072;2023-06-01T04:00:07;7.47;;;4.35;;
14235;SDS011;7202;50.718;7.072;2023-06-01T04:02:51;6.68;;;4.57;;
14235;SDS011;7202;50.718;7.072;2023-06-01T04:05:23;6.35;;;4.40;;
14235;SDS011;7202;50.718;7.072;2023-06-01T04:07:54;6.85;;;3.92;;
14235;SDS011;7202;50.718;7.072;2023-06-01T04:10:25;8.95;;;4.78;;
14235;SDS011;7202;50.718;7.072;2023-06-01T04:12:53;6.32;;;4.28;;
14235;SDS011;7202;50.718;7.072;2023-06-01T04:15:25;7.95;;;4.30;;
14235;SDS011;7202;50.718;7.072;2023-06-01T04:17:54;9.60;;;5.57;;
14235;SDS011;7202;50.718;7.072;2023-06-01T04:20:23;7.60;;;5.07;;
14235;SDS011;7202;50.718;7.072;2023-06-01T04:22:53;7.90;;;4.80;;
14235;SDS011;7202;50.718;7.072;2023-06-01T04:25:21;7.65;;;4.88;;
14235;SDS011;7202;50.718;7.072;2023-06-01T04:27:52;9.70;;;5.40;;
14235;SDS011;7202;50.718;7.072;2023-06-01T04:30:23;7.80;;;5.47;;
14235;SDS011;7202;50.718;7.072;2023-06-01T04:32:53;8.60;;;4.93;;
14235;SDS011;7202;50.718;7.072;2023-06-01T04:35:22;7.15;;;4.60;;
14235;SDS011;7202;50.718;7.072;2023-06-01T04:37:51;7.78;;;4.70;;
14235;SDS011;7202;50.718;7.072;2023-06-01T04:40:21;5.55;;;4.68;;
14235;SDS011;7202;50.718;7.072;2023-06-01T04:42:49;7.07;;;5.07;;
14235;SDS011;7202;50.718;7.072;2023-06-01T04:45:25;9.73;;;4.63;;
14235;SDS011;7202;50.718;7.072;2023-06-01T04:47:56;7.32;;;5.10;;
14235;SDS011;7202;50.718;7.072;2023-06-01T04:50:34;12.38;;;4.88;;
14235;SDS011;7202;50.718;7.072;2023-06-01T04:53:04;5.90;;;4.90;;
14235;SDS011;7202;50.718;7.072;2023-06-01T04:55:33;7.40;;;4.80;;
14235;SDS011;7202;50.718;7.072;2023-06-01T04:58:02;6.00;;;4.40;;
14235;SDS011;7202;50.718;7.072;2023-06-01T05:00:33;8.27;;;4.82;;
14235;SDS011;7202;50.718;7.072;2023-06-01T05:03:03;8.75;;;5.25;;
14235;SDS011;7202;50.718;7.072;2023-06-01T05:05:32;9.60;;;5.25;;
14235;SDS011;7202;50.718;7.072;2023-06-01T05:08:02;7.70;;;5.03;;
14235;SDS011;7202;50.718;7.072;2023-06-01T05:10:30;14.88;;;5.28;;
14235;SDS011;7202;50.718;7.072;2023-06-01T05:13:00;9.48;;;5.30;;
14235;SDS011;7202;50.718;7.072;2023-06-01T05:15:29;7.88;;;5.43;;
14235;SDS011;7202;50.718;7.072;2023-06-01T05:17:59;8.02;;;5.00;;
14235;SDS011;7202;50.718;7.072;2023-06-01T05:20:28;7.15;;;5.45;;
14235;SDS011;7202;50.718;7.072;2023-06-01T05:22:58;7.97;;;4.47;;
14235;SDS011;7202;50.718;7.072;2023-06-01T05:25:27;10.32;;;5.90;;
14235;SDS011;7202;50.718;7.072;2023-06-01T05:27:56;8.25;;;5.65;;
14235;SDS011;7202;50.718;7.072;2023-06-01T05:30:26;8.55;;;5.82;;
14235;SDS011;7202;50.718;7.072;2023-06-01T05:32:55;20.40;;;5.90;;
14235;SDS011;7202;50.718;7.072;2023-06-01T05:35:25;10.00;;;5.80;;
14235;SDS011;7202;50.718;7.072;2023-06-01T05:37:54;9.48;;;5.35;;
14235;SDS011;7202;50.718;7.072;2023-06-01T05:40:22;10.95;;;5.50;;
14235;SDS011;7202;50.718;7.072;2023-06-01T05:42:51;10.50;;;6.07;;
14235;SDS011;7202;50.718;7.072;2023-06-01T05:45:20;12.07;;;6.50;;
14235;SDS011;7202;50.718;7.072;2023-06-01T05:47:48;11.65;;;6.68;;
14235;SDS011;7202;50.718;7.072;2023-06-01T05:50:18;9.68;;;6.47;;
14235;SDS011;7202;50.718;7.072;2023-06-01T05:52:48;8.68;;;5.63;;
14235;SDS011;7202;50.718;7.072;2023-06-01T05:55:17;9.60;;;5.70;;
14235;SDS011;7202;50.718;7.072;2023-06-01T05:57:46;9.07;;;5.97;;
14235;SDS011;7202;50.718;7.072;2023-06-01T06:00:16;11.02;;;6.75;;
14235;SDS011;7202;50.718;7.072;2023-06-01T06:02:47;15.00;;;8.02;;
14235;SDS011;7202;50.718;7.072;2023-06-01T06:05:16;12.02;;;7.57;;
14235;SDS011;7202;50.718;7.072;2023-06-01T06:07:45;11.80;;;7.13;;
14235;SDS011;7202;50.718;7.072;2023-06-01T06:10:15;10.30;;;7.00;;
14235;SDS011;7202;50.718;7.072;2023-06-01T06:12:44;12.15;;;7.97;;
14235;SDS011;7202;50.718;7.072;2023-06-01T06:15:13;13.13;;;7.45;;
14235;SDS011;7202;50.718;7.072;2023-06-01T06:17:42;12.43;;;8.38;;
14235;SDS011;7202;50.718;7.072;2023-06-01T06:20:11;16.08;;;8.90;;
14235;SDS011;7202;50.718;7.072;2023-06-01T06:22:42;14.45;;;7.47;;
14235;SDS011;7202;50.718;7.072;2023-06-01T06:25:11;10.68;;;7.65;;
14235;SDS011;7202;50.718;7.072;2023-06-01T06:27:41;13.45;;;7.80;;
14235;SDS011;7202;50.718;7.072;2023-06-01T06:30:09;15.52;;;8.90;;
14235;SDS011;7202;50.718;7.072;2023-06-01T06:32:38;11.13;;;7.82;;
14235;SDS011;7202;50.718;7.072;2023-06-01T06:35:07;11.27;;;7.70;;
14235;SDS011;7202;50.718;7.072;2023-06-01T06:37:39;10.25;;;7.85;;
14235;SDS011;7202;50.718;7.072;2023-06-01T06:40:09;11.02;;;7.82;;
14235;SDS011;7202;50.718;7.072;2023-06-01T06:42:38;15.63;;;9.13;;
14235;SDS011;7202;50.718;7.072;2023-06-01T06:45:08;12.13;;;8.13;;
14235;SDS011;7202;50.718;7.072;2023-06-01T06:47:38;13.02;;;8.75;;
14235;SDS011;7202;50.718;7.072;2023-06-01T06:50:09;11.25;;;8.48;;
14235;SDS011;7202;50.718;7.072;2023-06-01T06:52:38;15.15;;;8.63;;
14235;SDS011;7202;50.718;7.072;2023-06-01T06:55:08;12.35;;;9.20;;
14235;SDS011;7202;50.718;7.072;2023-06-01T06:57:37;14.38;;;9.32;;
14235;SDS011;7202;50.718;7.072;2023-06-01T07:00:09;13.52;;;9.30;;
14235;SDS011;7202;50.718;7.072;2023-06-01T07:02:41;11.98;;;9.38;;
14235;SDS011;7202;50.718;7.072;2023-06-01T07:05:12;14.73;;;9.45;;
14235;SDS011;7202;50.718;7.072;2023-06-01T07:07:40;11.98;;;8.82;;
14235;SDS011;7202;50.718;7.072;2023-06-01T07:10:09;16.30;;;10.15;;
14235;SDS011;7202;50.718;7.072;2023-06-01T07:12:38;14.18;;;9.57;;
14235;SDS011;7202;50.718;7.072;2023-06-01T07:15:09;16.30;;;10.13;;
14235;SDS011;7202;50.718;7.072;2023-06-01T07:17:37;14.73;;;10.38;;
14235;SDS011;7202;50.718;7.072;2023-06-01T07:20:08;14.45;;;10.65;;
14235;SDS011;7202;50.718;7.072;2023-06-01T07:22:38;15.90;;;10.18;;
14235;SDS011;7202;50.718;7.072;2023-06-01T07:25:08;14.35;;;10.60;;
14235;SDS011;7202;50.718;7.072;2023-06-01T07:27:39;15.70;;;11.05;;
14235;SDS011;7202;50.718;7.072;2023-06-01T07:30:11;19.25;;;11.20;;
14235;SDS011;7202;50.718;7.072;2023-06-01T07:32:41;15.40;;;10.95;;
14235;SDS011;7202;50.718;7.072;2023-06-01T07:35:11;20.08;;;12.98;;
14235;SDS011;7202;50.718;7.072;2023-06-01T07:37:39;15.88;;;12.10;;
14235;SDS011;7202;50.718;7.072;2023-06-01T07:40:08;20.17;;;12.93;;
14235;SDS011;7202;50.718;7.072;2023-06-01T07:42:38;19.58;;;13.07;;
14235;SDS011;7202;50.718;7.072;2023-06-01T07:45:07;18.60;;;13.82;;
14235;SDS011;7202;50.718;7.072;2023-06-01T07:47:39;18.85;;;13.20;;
14235;SDS011;7202;50.718;7.072;2023-06-01T07:50:08;19.48;;;14.32;;
14235;SDS011;7202;50.718;7.072;2023-06-01T07:52:37;20.10;;;14.95;;
14235;SDS011;7202;50.718;7.072;2023-06-01T07:55:06;21.80;;;14.52;;
14235;SDS011;7202;50.718;7.072;2023-06-01T07:57:36;22.30;;;15.30;;
14235;SDS011;7202;50.718;7.072;2023-06-01T08:00:05;25.75;;;15.73;;
14235;SDS011;7202;50.718;7.072;2023-06-01T08:02:39;22.05;;;14.80;;
14235;SDS011;7202;50.718;7.072;2023-06-01T08:05:09;25.25;;;14.77;;
14235;SDS011;7202;50.718;7.072;2023-06-01T08:07:38;22.80;;;16.23;;
14235;SDS011;7202;50.718;7.072;2023-06-01T08:10:07;30.35;;;16.63;;
14235;SDS011;7202;50.718;7.072;2023-06-01T08:12:37;22.20;;;16.42;;
14235;SDS011;7202;50.718;7.072;2023-06-01T08:15:06;27.05;;;16.98;;
14235;SDS011;7202;50.718;7.072;2023-06-01T08:17:35;28.35;;;16.45;;
14235;SDS011;7202;50.718;7.072;2023-06-01T08:20:06;24.25;;;16.70;;
14235;SDS011;7202;50.718;7.072;2023-06-01T08:22:38;24.10;;;17.15;;
14235;SDS011;7202;50.718;7.072;2023-06-01T08:25:08;22.38;;;16.15;;
14235;SDS011;7202;50.718;7.072;2023-06-01T08:27:37;22.45;;;16.77;;
14235;SDS011;7202;50.718;7.072;2023-06-01T08:30:06;24.65;;;16.60;;
14235;SDS011;7202;50.718;7.072;2023-06-01T08:32:35;28.10;;;17.45;;
14235;SDS011;7202;50.718;7.072;2023-06-01T08:35:06;23.30;;;18.13;;
14235;SDS011;7202;50.718;7.072;2023-06-01T08:37:35;24.95;;;18.55;;
14235;SDS011;7202;50.718;7.072;2023-06-01T08:40:05;25.15;;;19.95;;
14235;SDS011;7202;50.718;7.072;2023-06-01T08:42:42;28.65;;;19.13;;
14235;SDS011;7202;50.718;7.072;2023-06-01T08:45:19;29.95;;;20.65;;
14235;SDS011;7202;50.718;7.072;2023-06-01T08:47:53;26.33;;;20.35;;
14235;SDS011;7202;50.718;7.072;2023-06-01T08:50:24;33.75;;;22.17;;
14235;SDS011;7202;50.718;7.072;2023-06-01T08:52:55;25.10;;;19.98;;
14235;SDS011;7202;50.718;7.072;2023-06-01T08:55:27;27.20;;;20.30;;
14235;SDS011;7202;50.718;7.072;2023-06-01T08:57:55;23.75;;;20.35;;
14235;SDS011;7202;50.718;7.072;2023-06-01T09:00:25;24.80;;;19.02;;
14235;SDS011;7202;50.718;7.072;2023-06-01T09:02:55;25.85;;;18.20;;
14235;SDS011;7202;50.718;7.072;2023-06-01T09:05:28;28.08;;;21.88;;
14235;SDS011;7202;50.718;7.072;2023-06-01T09:07:56;30.27;;;21.08;;
14235;SDS011;7202;50.718;7.072;2023-06-01T09:10:25;27.40;;;21.27;;
14235;SDS011;7202;50.718;7.072;2023-06-01T09:12:55;24.58;;;19.25;;
14235;SDS011;7202;50.718;7.072;2023-06-01T09:15:23;33.38;;;22.73;;
14235;SDS011;7202;50.718;7.072;2023-06-01T09:18:03;28.15;;;20.13;;
14235;SDS011;7202;50.718;7.072;2023-06-01T09:20:35;29.45;;;20.25;;
14235;SDS011;7202;50.718;7.072;2023-06-01T09:23:06;28.73;;;22.00;;
14235;SDS011;7202;50.718;7.072;2023-06-01T09:25:35;25.83;;;19.88;;
14235;SDS011;7202;50.718;7.072;2023-06-01T09:28:03;25.88;;;19.77;;
14235;SDS011;7202;50.718;7.072;2023-06-01T09:30:40;29.10;;;20.65;;
14235;SDS011;7202;50.718;7.072;2023-06-01T09:33:10;27.95;;;19.83;;
14235;SDS011;7202;50.718;7.072;2023-06-01T09:35:42;27.98;;;19.58;;
14235;SDS011;7202;50.718;7.072;2023-06-01T09:38:19;25.25;;;19.45;;
14235;SDS011;7202;50.718;7.072;2023-06-01T09:40:55;26.45;;;20.45;;
14235;SDS011;7202;50.718;7.072;2023-06-01T09:43:25;27.63;;;20.75;;
14235;SDS011;7202;50.718;7.072;2023-06-01T09:46:03;26.02;;;20.10;;
14235;SDS011;7202;50.718;7.072;2023-06-01T09:48:33;25.38;;;18.88;;
14235;SDS011;7202;50.718;7.072;2023-06-01T09:51:05;24.08;;;18.77;;
14235;SDS011;7202;50.718;7.072;2023-06-01T09:53:49;25.27;;;18.25;;
14235;SDS011;7202;50.718;7.072;2023-06-01T09:56:17;24.33;;;17.75;;
14235;SDS011;7202;50.718;7.072;2023-06-01T09:58:47;21.60;;;16.13;;
14235;SDS011;7202;50.718;7.072;2023-06-01T10:01:16;23.85;;;18.35;;
14235;SDS011;7202;50.718;7.072;2023-06-01T10:03:45;21.33;;;17.23;;
14235;SDS011;7202;50.718;7.072;2023-06-01T10:06:22;17.65;;;15.35;;
14235;SDS011;7202;50.718;7.072;2023-06-01T10:08:50;21.35;;;15.18;;
14235;SDS011;7202;50.718;7.072;2023-06-01T10:11:20;17.67;;;15.20;;
14235;SDS011;7202;50.718;7.072;2023-06-01T10:13:49;20.42;;;15.15;;
14235;SDS011;7202;50.718;7.072;2023-06-01T10:16:18;20.02;;;14.68;;
14235;SDS011;7202;50.718;7.072;2023-06-01T10:18:47;16.88;;;14.77;;
14235;SDS011;7202;50.718;7.072;2023-06-01T10:21:17;22.35;;;14.20;;
14235;SDS011;7202;50.718;7.072;2023-06-01T10:23:48;20.55;;;14.52;;
14235;SDS011;7202;50.718;7.072;2023-06-01T10:26:18;17.42;;;13.88;;
14235;SDS011;7202;50.718;7.072;2023-06-01T10:28:48;18.73;;;14.75;;
14235;SDS011;7202;50.718;7.072;2023-06-01T10:31:34;17.60;;;14.00;;
14235;SDS011;7202;50.718;7.072;2023-06-01T10:34:05;18.20;;;13.77;;
14235;SDS011;7202;50.718;7.072;2023-06-01T10:39:42;15.55;;;12.32;;
14235;SDS011;7202;50.718;7.072;2023-06-01T10:45:08;20.27;;;12.18;;
14235;SDS011;7202;50.718;7.072;2023-06-01T10:47:54;16.60;;;12.38;;
14235;SDS011;7202;50.718;7.072;2023-06-01T10:50:23;16.95;;;11.50;;
14235;SDS011;7202;50.718;7.072;2023-06-01T10:52:53;16.67;;;12.50;;
14235;SDS011;7202;50.718;7.072;2023-06-01T10:55:27;17.83;;;11.63;;
14235;SDS011;7202;50.718;7.072;2023-06-01T11:00:51;14.63;;;11.80;;
14235;SDS011;7202;50.718;7.072;2023-06-01T11:06:23;15.43;;;12.30;;
14235;SDS011;7202;50.718;7.072;2023-06-01T11:08:55;15.65;;;11.68;;
14235;SDS011;7202;50.718;7.072;2023-06-01T11:14:28;14.00;;;11.68;;
14235;SDS011;7202;50.718;7.072;2023-06-01T11:19:56;16.20;;;12.18;;
14235;SDS011;7202;50.718;7.072;2023-06-01T11:22:33;15.55;;;11.90;;
14235;SDS011;7202;50.718;7.072;2023-06-01T11:25:04;21.70;;;12.38;;
14235;SDS011;7202;50.718;7.072;2023-06-01T11:27:36;15.80;;;13.05;;
14235;SDS011;7202;50.718;7.072;2023-06-01T11:30:09;20.35;;;12.57;;
14235;SDS011;7202;50.718;7.072;2023-06-01T11:32:39;18.00;;;12.82;;
14235;SDS011;7202;50.718;7.072;2023-06-01T11:35:15;18.50;;;12.77;;
14235;SDS011;7202;50.718;7.072;2023-06-01T11:37:45;15.77;;;12.30;;
14235;SDS011;7202;50.718;7.072;2023-06-01T11:40:16;17.98;;;12.50;;
14235;SDS011;7202;50.718;7.072;2023-06-01T11:42:46;18.38;;;12.23;;
14235;SDS011;7202;50.718;7.072;2023-06-01T11:45:15;15.18;;;12.45;;
14235;SDS011;7202;50.718;7.072;2023-06-01T11:47:44;16.58;;;12.93;;
14235;SDS011;7202;50.718;7.072;2023-06-01T11:50:20;15.55;;;11.95;;
14235;SDS011;7202;50.718;7.072;2023-06-01T11:52:51;14.18;;;11.13;;
14235;SDS011;7202;50.718;7.072;2023-06-01T11:55:20;19.73;;;12.88;;
14235;SDS011;7202;50.718;7.072;2023-06-01T11:57:50;16.55;;;12.45;;
14235;SDS011;7202;50.718;7.072;2023-06-01T12:00:19;17.38;;;13.23;;
14235;SDS011;7202;50.718;7.072;2023-06-01T12:02:48;16.60;;;12.60;;
14235;SDS011;7202;50.718;7.072;2023-06-01T12:05:17;17.30;;;13.55;;
14235;SDS011;7202;50.718;7.072;2023-06-01T12:07:46;18.23;;;14.57;;
14235;SDS011;7202;50.718;7.072;2023-06-01T12:10:18;16.55;;;12.85;;
14235;SDS011;7202;50.718;7.072;2023-06-01T12:12:50;17.35;;;13.90;;
14235;SDS011;7202;50.718;7.072;2023-06-01T12:15:18;16.17;;;13.27;;
14235;SDS011;7202;50.718;7.072;2023-06-01T12:17:47;15.27;;;11.20;;
14235;SDS011;7202;50.718;7.072;2023-06-01T12:20:29;18.70;;;14.20;;
14235;SDS011;7202;50.718;7.072;2023-06-01T12:22:58;14.60;;;12.40;;
14235;SDS011;7202;50.718;7.072;2023-06-01T12:25:30;18.90;;;14.80;;
14235;SDS011;7202;50.718;7.072;2023-06-01T12:28:04;22.33;;;16.63;;
14235;SDS011;7202;50.718;7.072;2023-06-01T12:30:35;23.80;;;18.25;;
14235;SDS011;7202;50.718;7.072;2023-06-01T12:33:04;26.23;;;20.67;;
14235;SDS011;7202;50.718;7.072;2023-06-01T12:35:33;23.05;;;17.65;;
14235;SDS011;7202;50.718;7.072;2023-06-01T12:38:16;23.35;;;18.20;;
14235;SDS011;7202;50.718;7.072;2023-06-01T12:40:45;26.50;;;18.60;;
14235;SDS011;7202;50.718;7.072;2023-06-01T12:43:18;21.58;;;17.52;;
14235;SDS011;7202;50.718;7.072;2023-06-01T12:45:47;23.58;;;16.65;;
14235;SDS011;7202;50.718;7.072;2023-06-01T12:51:04;22.77;;;17.70;;
14235;SDS011;7202;50.718;7.072;2023-06-01T12:53:34;26.38;;;18.42;;
14235;SDS011;7202;50.718;7.072;2023-06-01T12:56:04;23.38;;;17.98;;
14235;SDS011;7202;50.718;7.072;2023-06-01T12:58:34;22.63;;;17.45;;
14235;SDS011;7202;50.718;7.072;2023-06-01T13:01:03;25.40;;;18.48;;
14235;SDS011;7202;50.718;7.072;2023-06-01T13:03:32;21.23;;;17.10;;
14235;SDS011;7202;50.718;7.072;2023-06-01T13:06:01;25.75;;;18.55;;
14235;SDS011;7202;50.718;7.072;2023-06-01T13:08:30;19.40;;;16.38;;
14235;SDS011;7202;50.718;7.072;2023-06-01T13:10:59;20.88;;;16.60;;
14235;SDS011;7202;50.718;7.072;2023-06-01T13:13:27;20.67;;;16.75;;
14235;SDS011;7202;50.718;7.072;2023-06-01T13:15:58;19.63;;;15.13;;
14235;SDS011;7202;50.718;7.072;2023-06-01T13:18:27;21.60;;;15.20;;
14235;SDS011;7202;50.718;7.072;2023-06-01T13:20:55;22.30;;;14.80;;
14235;SDS011;7202;50.718;7.072;2023-06-01T13:23:24;17.98;;;12.82;;
14235;SDS011;7202;50.718;7.072;2023-06-01T13:25:54;18.60;;;12.15;;
14235;SDS011;7202;50.718;7.072;2023-06-01T13:28:23;19.10;;;12.25;;
14235;SDS011;7202;50.718;7.072;2023-06-01T13:30:52;13.90;;;11.15;;
14235;SDS011;7202;50.718;7.072;2023-06-01T13:33:23;14.50;;;12.07;;
14235;SDS011;7202;50.718;7.072;2023-06-01T13:35:52;14.57;;;11.50;;
14235;SDS011;7202;50.718;7.072;2023-06-01T13:38:20;13.13;;;10.30;;
14235;SDS011;7202;50.718;7.072;2023-06-01T13:40:49;13.25;;;10.63;;
14235;SDS011;7202;50.718;7.072;2023-06-01T13:43:17;13.35;;;10.88;;
14235;SDS011;7202;50.718;7.072;2023-06-01T13:45:46;16.80;;;10.98;;
14235;SDS011;7202;50.718;7.072;2023-06-01T13:48:15;16.10;;;11.07;;
14235;SDS011;7202;50.718;7.072;2023-06-01T13:50:48;24.20;;;12.23;;
14235;SDS011;7202;50.718;7.072;2023-06-01T13:53:16;16.70;;;11.43;;
14235;SDS011;7202;50.718;7.072;2023-06-01T13:55:45;14.32;;;10.40;;
14235;SDS011;7202;50.718;7.072;2023-06-01T13:58:14;15.75;;;11.15;;
14235;SDS011;7202;50.718;7.072;2023-06-01T14:00:42;14.02;;;10.73;;
14235;SDS011;7202;50.718;7.072;2023-06-01T14:03:11;16.52;;;11.30;;
14235;SDS011;7202;50.718;7.072;2023-06-01T14:05:42;13.50;;;10.10;;
14235;SDS011;7202;50.718;7.072;2023-06-01T14:08:23;18.85;;;10.63;;
14235;SDS011;7202;50.718;7.072;2023-06-01T14:10:52;15.77;;;10.32;;
14235;SDS011;7202;50.718;7.072;2023-06-01T14:13:20;16.95;;;11.23;;
14235;SDS011;7202;50.718;7.072;2023-06-01T14:15:49;16.25;;;10.32;;
14235;SDS011;7202;50.718;7.072;2023-06-01T14:18:18;15.93;;;10.00;;
14235;SDS011;7202;50.718;7.072;2023-06-01T14:20:46;11.73;;;9.27;;
14235;SDS011;7202;50.718;7.072;2023-06-01T14:23:15;13.45;;;8.88;;
14235;SDS011;7202;50.718;7.072;2023-06-01T14:25:45;13.70;;;7.78;;
14235;SDS011;7202;50.718;7.072;2023-06-01T14:28:14;15.95;;;8.18;;
14235;SDS011;7202;50.718;7.072;2023-06-01T14:30:42;13.20;;;7.75;;
14235;SDS011;7202;50.718;7.072;2023-06-01T14:33:13;13.27;;;7.75;;
14235;SDS011;7202;50.718;7.072;2023-06-01T14:35:42;12.60;;;8.63;;
14235;SDS011;7202;50.718;7.072;2023-06-01T14:38:11;13.27;;;7.25;;
14235;SDS011;7202;50.718;7.072;2023-06-01T14:40:39;14.07;;;7.07;;
14235;SDS011;7202;50.718;7.072;2023-06-01T14:43:09;13.23;;;6.97;;
14235;SDS011;7202;50.718;7.072;2023-06-01T14:45:38;12.30;;;7.10;;
14235;SDS011;7202;50.718;7.072;2023-06-01T14:48:07;12.57;;;7.30;;
14235;SDS011;7202;50.718;7.072;2023-06-01T14:50:35;9.38;;;7.05;;
14235;SDS011;7202;50.718;7.072;2023-06-01T14:53:04;11.90;;;6.75;;
14235;SDS011;7202;50.718;7.072;2023-06-01T14:55:33;12.32;;;6.70;;
14235;SDS011;7202;50.718;7.072;2023-06-01T14:58:02;9.73;;;6.15;;
14235;SDS011;7202;50.718;7.072;2023-06-01T15:00:32;11.32;;;5.93;;
14235;SDS011;7202;50.718;7.072;2023-06-01T15:03:00;14.77;;;6.13;;
14235;SDS011;7202;50.718;7.072;2023-06-01T15:05:29;12.50;;;6.57;;
14235;SDS011;7202;50.718;7.072;2023-06-01T15:07:58;12.40;;;5.65;;
14235;SDS011;7202;50.718;7.072;2023-06-01T15:10:27;9.68;;;5.70;;
14235;SDS011;7202;50.718;7.072;2023-06-01T15:12:56;10.32;;;5.65;;
14235;SDS011;7202;50.718;7.072;2023-06-01T15:15:25;11.65;;;5.72;;
14235;SDS011;7202;50.718;7.072;2023-06-01T15:17:55;11.50;;;6.13;;
14235;SDS011;7202;50.718;7.072;2023-06-01T15:20:24;11.90;;;5.85;;
14235;SDS011;7202;50.718;7.072;2023-06-01T15:22:52;10.63;;;6.43;;
14235;SDS011;7202;50.718;7.072;2023-06-01T15:25:22;8.30;;;5.68;;
14235;SDS011;7202;50.718;7.072;2023-06-01T15:27:50;10.32;;;5.32;;